sensor_id;sensor_type;location;lat;lon;timestamp;pressure;altitude;pressure_sealevel;temperature;humidity
39823;BME280;25499;53.958;10.970;2023-05-01T06:54:26;101581.88;;;9.52;75.50
39823;BME280;25499;53.958;10.970;2023-05-01T06:56:53;101579.59;;;9.72;75.58
39823;BME280;25499;53.958;10.970;2023-05-01T06:59:20;101610.44;;;10.08;76.97
39823;BME280;25499;53.958;10.970;2023-05-01T07:01:47;101566.16;;;10.07;73.77
39823;BME280;25499;53.958;10.970;2023-05-01T07:04:14;101541.09;;;10.14;73.11
39823;BME280;25499;53.958;10.970;2023-05-01T07:06:40;101554.53;;;10.49;72.42
39823;BME280;25499;53.958;10.970;2023-05-01T07:09:07;101519.81;;;10.50;70.68
39823;BME280;25499;53.958;10.970;2023-05-01T07:11:36;101516.38;;;10.51;70.42
39823;BME280;25499;53.958;10.970;2023-05-01T07:14:05;101515.59;;;10.63;70.01
39823;BME280;25499;53.958;10.970;2023-05-01T07:16:31;101502.72;;;10.78;68.91
39823;BME280;25499;53.958;10.970;2023-05-01T07:18:58;101511.44;;;10.85;69.31
39823;BME280;25499;53.958;10.970;2023-05-01T07:21:25;101523.69;;;10.97;69.47
39823;BME280;25499;53.958;10.970;2023-05-01T07:23:52;101514.34;;;11.24;69.48
39823;BME280;25499;53.958;10.970;2023-05-01T07:26:18;101478.72;;;11.26;67.83
39823;BME280;25499;53.958;10.970;2023-05-01T07:28:47;101471.75;;;11.25;66.90
39823;BME280;25499;53.958;10.970;2023-05-01T07:31:13;101501.31;;;11.28;68.28
39823;BME280;25499;53.958;10.970;2023-05-01T07:33:41;101475.47;;;11.77;66.97
39823;BME280;25499;53.958;10.970;2023-05-01T07:36:08;101488.56;;;11.88;66.59
39823;BME280;25499;53.958;10.970;2023-05-01T07:38:34;101453.84;;;12.11;65.41
39823;BME280;25499;53.958;10.970;2023-05-01T07:41:07;101466.06;;;12.20;65.01
39823;BME280;25499;53.958;10.970;2023-05-01T07:43:41;101465.22;;;12.55;64.59
39823;BME280;25499;53.958;10.970;2023-05-01T07:46:10;101439.09;;;12.64;63.00
39823;BME280;25499;53.958;10.970;2023-05-01T07:48:37;101446.06;;;12.40;63.59
39823;BME280;25499;53.958;10.970;2023-05-01T07:51:04;101439.09;;;12.44;63.13
39823;BME280;25499;53.958;10.970;2023-05-01T07:53:31;101448.66;;;12.62;63.19
39823;BME280;25499;53.958;10.970;2023-05-01T07:56:05;101428.66;;;12.35;62.52
39823;BME280;25499;53.958;10.970;2023-05-01T07:58:34;101460.00;;;12.68;63.95
39823;BME280;25499;53.958;10.970;2023-05-01T08:01:01;101461.72;;;12.93;63.72
39823;BME280;25499;53.958;10.970;2023-05-01T08:03:31;101432.06;;;13.11;62.80
39823;BME280;25499;53.958;10.970;2023-05-01T08:05:58;101446.75;;;13.52;63.44
39823;BME280;25499;53.958;10.970;2023-05-01T08:08:25;101374.38;;;13.49;59.73
39823;BME280;25499;53.958;10.970;2023-05-01T08:10:52;101399.56;;;13.75;60.26
39823;BME280;25499;53.958;10.970;2023-05-01T08:13:18;101412.66;;;13.76;60.67
39823;BME280;25499;53.958;10.970;2023-05-01T08:15:46;101408.34;;;13.63;60.20
39823;BME280;25499;53.958;10.970;2023-05-01T08:18:13;101390.97;;;13.47;59.98
39823;BME280;25499;53.958;10.970;2023-05-01T08:20:46;101342.31;;;13.09;57.87
39823;BME280;25499;53.958;10.970;2023-05-01T08:23:13;101355.91;;;13.80;58.61
39823;BME280;25499;53.958;10.970;2023-05-01T08:25:40;101341.03;;;13.87;57.32
39823;BME280;25499;53.958;10.970;2023-05-01T08:28:08;101340.34;;;13.60;56.32
39823;BME280;25499;53.958;10.970;2023-05-01T08:30:34;101386.13;;;14.24;57.64
39823;BME280;25499;53.958;10.970;2023-05-01T08:33:01;101329.56;;;14.00;55.74
39823;BME280;25499;53.958;10.970;2023-05-01T08:35:28;101322.50;;;14.11;55.00
39823;BME280;25499;53.958;10.970;2023-05-01T08:37:57;101343.47;;;14.08;55.63
39823;BME280;25499;53.958;10.970;2023-05-01T08:40:24;101312.97;;;14.03;54.64
39823;BME280;25499;53.958;10.970;2023-05-01T08:42:53;101352.63;;;14.63;56.17
39823;BME280;25499;53.958;10.970;2023-05-01T08:45:22;101340.78;;;15.04;54.85
39823;BME280;25499;53.958;10.970;2023-05-01T08:47:51;101284.34;;;14.76;52.76
39823;BME280;25499;53.958;10.970;2023-05-01T08:50:18;101326.53;;;14.49;54.70
39823;BME280;25499;53.958;10.970;2023-05-01T08:52:49;101315.97;;;14.60;54.46
39823;BME280;25499;53.958;10.970;2023-05-01T08:55:18;101299.59;;;14.35;53.50
39823;BME280;25499;53.958;10.970;2023-05-01T08:57:47;101317.25;;;15.00;53.83
39823;BME280;25499;53.958;10.970;2023-05-01T09:00:17;101325.69;;;15.22;54.74
39823;BME280;25499;53.958;10.970;2023-05-01T09:02:45;101303.25;;;15.01;53.31
39823;BME280;25499;53.958;10.970;2023-05-01T09:05:14;101214.16;;;14.22;50.87
39823;BME280;25499;53.958;10.970;2023-05-01T09:07:42;101252.06;;;14.72;51.96
39823;BME280;25499;53.958;10.970;2023-05-01T09:10:10;101245.22;;;14.55;51.14
39823;BME280;25499;53.958;10.970;2023-05-01T09:12:40;101239.13;;;14.55;51.31
39823;BME280;25499;53.958;10.970;2023-05-01T09:15:10;101280.28;;;15.20;52.12
39823;BME280;25499;53.958;10.970;2023-05-01T09:17:36;101242.66;;;15.21;51.53
39823;BME280;25499;53.958;10.970;2023-05-01T09:20:04;101255.59;;;15.35;50.65
39823;BME280;25499;53.958;10.970;2023-05-01T09:22:32;101218.59;;;15.50;50.09
39823;BME280;25499;53.958;10.970;2023-05-01T09:24:59;101248.00;;;15.71;50.82
39823;BME280;25499;53.958;10.970;2023-05-01T09:27:26;101231.66;;;15.55;50.34
39823;BME280;25499;53.958;10.970;2023-05-01T09:29:55;101186.88;;;15.64;48.72
39823;BME280;25499;53.958;10.970;2023-05-01T09:32:23;101271.44;;;15.86;51.16
39823;BME280;25499;53.958;10.970;2023-05-01T09:34:53;101261.66;;;15.94;51.14
39823;BME280;25499;53.958;10.970;2023-05-01T09:37:27;101177.25;;;16.14;48.77
39823;BME280;25499;53.958;10.970;2023-05-01T09:40:03;101142.97;;;15.72;47.07
39823;BME280;25499;53.958;10.970;2023-05-01T09:42:30;101150.50;;;15.94;47.62
39823;BME280;25499;53.958;10.970;2023-05-01T09:44:59;101213.91;;;16.64;47.87
39823;BME280;25499;53.958;10.970;2023-05-01T09:47:26;101254.47;;;17.35;48.79
39823;BME280;25499;53.958;10.970;2023-05-01T09:49:54;101183.16;;;17.08;47.80
39823;BME280;25499;53.958;10.970;2023-05-01T09:52:22;101151.59;;;16.68;45.87
39823;BME280;25499;53.958;10.970;2023-05-01T09:54:49;101134.44;;;16.09;47.01
39823;BME280;25499;53.958;10.970;2023-05-01T09:57:15;101157.09;;;16.15;46.61
39823;BME280;25499;53.958;10.970;2023-05-01T09:59:42;101148.31;;;16.58;46.46
39823;BME280;25499;53.958;10.970;2023-05-01T10:02:28;101117.28;;;16.35;45.49
39823;BME280;25499;53.958;10.970;2023-05-01T10:04:57;101187.47;;;16.30;47.21
39823;BME280;25499;53.958;10.970;2023-05-01T10:07:24;101130.03;;;16.11;46.07
39823;BME280;25499;53.958;10.970;2023-05-01T10:09:52;101122.34;;;16.42;45.56
39823;BME280;25499;53.958;10.970;2023-05-01T10:12:23;101122.13;;;16.53;45.82
39823;BME280;25499;53.958;10.970;2023-05-01T10:14:51;101146.41;;;16.65;45.67
39823;BME280;25499;53.958;10.970;2023-05-01T10:17:18;101139.38;;;17.42;46.13
39823;BME280;25499;53.958;10.970;2023-05-01T10:19:47;101117.41;;;18.40;43.96
39823;BME280;25499;53.958;10.970;2023-05-01T10:22:14;101124.91;;;18.22;44.24
39823;BME280;25499;53.958;10.970;2023-05-01T10:24:42;101055.66;;;18.47;41.44
39823;BME280;25499;53.958;10.970;2023-05-01T10:27:11;101102.38;;;18.12;42.82
39823;BME280;25499;53.958;10.970;2023-05-01T10:29:39;101082.03;;;17.86;42.18
39823;BME280;25499;53.958;10.970;2023-05-01T10:32:07;101028.59;;;17.17;41.94
39823;BME280;25499;53.958;10.970;2023-05-01T10:34:41;101028.19;;;17.32;42.27
39823;BME280;25499;53.958;10.970;2023-05-01T10:37:16;101050.88;;;17.36;42.94
39823;BME280;25499;53.958;10.970;2023-05-01T10:39:43;100991.97;;;16.73;41.64
39823;BME280;25499;53.958;10.970;2023-05-01T10:42:10;101002.94;;;16.54;41.55
39823;BME280;25499;53.958;10.970;2023-05-01T10:44:39;101059.25;;;16.82;43.00
39823;BME280;25499;53.958;10.970;2023-05-01T10:47:43;100973.41;;;17.15;40.72
39823;BME280;25499;53.958;10.970;2023-05-01T10:50:10;101049.81;;;17.76;41.71
39823;BME280;25499;53.958;10.970;2023-05-01T10:53:18;100988.47;;;18.02;39.66
39823;BME280;25499;53.958;10.970;2023-05-01T10:55:46;100976.59;;;17.89;40.24
39823;BME280;25499;53.958;10.970;2023-05-01T11:01:29;100894.25;;;17.82;38.16
39823;BME280;25499;53.958;10.970;2023-05-01T11:03:57;100940.28;;;17.69;38.62
39823;BME280;25499;53.958;10.970;2023-05-01T11:06:24;100969.50;;;18.19;39.62
39823;BME280;25499;53.958;10.970;2023-05-01T11:08:53;101001.59;;;18.34;40.45
39823;BME280;25499;53.958;10.970;2023-05-01T11:11:45;101013.34;;;18.52;41.12
39823;BME280;25499;53.958;10.970;2023-05-01T11:14:13;100965.44;;;18.09;40.68
39823;BME280;25499;53.958;10.970;2023-05-01T11:16:41;100971.78;;;18.58;39.54
39823;BME280;25499;53.958;10.970;2023-05-01T11:19:09;101021.44;;;19.51;39.58
39823;BME280;25499;53.958;10.970;2023-05-01T11:21:37;100929.91;;;18.49;38.18
39823;BME280;25499;53.958;10.970;2023-05-01T11:24:08;100892.75;;;18.30;38.07
39823;BME280;25499;53.958;10.970;2023-05-01T11:26:37;100868.56;;;18.17;37.63
39823;BME280;25499;53.958;10.970;2023-05-01T11:29:04;100882.16;;;18.32;38.18
39823;BME280;25499;53.958;10.970;2023-05-01T11:31:32;100927.72;;;18.35;38.67
39823;BME280;25499;53.958;10.970;2023-05-01T11:33:59;100907.72;;;18.55;38.27
39823;BME280;25499;53.958;10.970;2023-05-01T11:36:27;100911.19;;;18.57;38.67
39823;BME280;25499;53.958;10.970;2023-05-01T11:38:56;100876.34;;;18.74;38.18
39823;BME280;25499;53.958;10.970;2023-05-01T11:41:26;100961.44;;;18.79;39.07
39823;BME280;25499;53.958;10.970;2023-05-01T11:43:54;100898.38;;;18.71;38.37
39823;BME280;25499;53.958;10.970;2023-05-01T11:46:29;100890.69;;;18.40;38.48
39823;BME280;25499;53.958;10.970;2023-05-01T11:48:57;100906.06;;;18.52;38.31
39823;BME280;25499;53.958;10.970;2023-05-01T11:51:24;100864.13;;;18.44;37.75
39823;BME280;25499;53.958;10.970;2023-05-01T11:53:59;100890.75;;;18.10;37.88
39823;BME280;25499;53.958;10.970;2023-05-01T11:56:28;100894.34;;;18.61;39.09
39823;BME280;25499;53.958;10.970;2023-05-01T11:58:56;100857.84;;;18.99;37.42
39823;BME280;25499;53.958;10.970;2023-05-01T12:01:32;100871.47;;;18.61;37.61
39823;BME280;25499;53.958;10.970;2023-05-01T12:03:59;100860.28;;;18.80;36.88
39823;BME280;25499;53.958;10.970;2023-05-01T12:06:34;100801.34;;;18.81;36.48
39823;BME280;25499;53.958;10.970;2023-05-01T12:09:05;100843.41;;;19.09;37.69
39823;BME280;25499;53.958;10.970;2023-05-01T12:11:33;100828.63;;;18.30;37.14
39823;BME280;25499;53.958;10.970;2023-05-01T12:14:02;100882.03;;;18.08;39.99
39823;BME280;25499;53.958;10.970;2023-05-01T12:16:29;100868.38;;;17.67;40.10
39823;BME280;25499;53.958;10.970;2023-05-01T12:18:57;100894.19;;;17.84;39.97
39823;BME280;25499;53.958;10.970;2023-05-01T12:21:25;100846.47;;;17.65;39.17
39823;BME280;25499;53.958;10.970;2023-05-01T12:23:52;100936.53;;;18.61;39.91
39823;BME280;25499;53.958;10.970;2023-05-01T12:26:23;100919.03;;;18.58;39.73
39823;BME280;25499;53.958;10.970;2023-05-01T12:28:56;100868.47;;;18.20;39.14
39823;BME280;25499;53.958;10.970;2023-05-01T12:31:24;100868.72;;;18.64;39.75
39823;BME280;25499;53.958;10.970;2023-05-01T12:33:52;100865.44;;;18.58;38.43
39823;BME280;25499;53.958;10.970;2023-05-01T12:36:21;100847.09;;;18.55;38.96
39823;BME280;25499;53.958;10.970;2023-05-01T12:39:08;100875.22;;;18.54;39.28
39823;BME280;25499;53.958;10.970;2023-05-01T12:41:37;100842.53;;;18.35;38.44
39823;BME280;25499;53.958;10.970;2023-05-01T12:44:22;100819.38;;;18.43;38.55
39823;BME280;25499;53.958;10.970;2023-05-01T12:46:53;100858.78;;;18.73;38.40
39823;BME280;25499;53.958;10.970;2023-05-01T12:49:21;100895.34;;;18.32;40.94
39823;BME280;25499;53.958;10.970;2023-05-01T12:51:48;100901.81;;;18.21;41.01
39823;BME280;25499;53.958;10.970;2023-05-01T12:54:19;100848.91;;;18.01;39.61
39823;BME280;25499;53.958;10.970;2023-05-01T12:56:46;100820.75;;;18.03;39.46
39823;BME280;25499;53.958;10.970;2023-05-01T12:59:22;100827.59;;;18.34;39.14
39823;BME280;25499;53.958;10.970;2023-05-01T13:01:56;100921.13;;;18.22;40.95
39823;BME280;25499;53.958;10.970;2023-05-01T13:04:24;100831.22;;;18.04;40.62
39823;BME280;25499;53.958;10.970;2023-05-01T13:06:51;100905.59;;;17.84;41.53
39823;BME280;25499;53.958;10.970;2023-05-01T13:09:20;100840.44;;;18.18;40.67
39823;BME280;25499;53.958;10.970;2023-05-01T13:12:00;100840.72;;;17.80;40.01
39823;BME280;25499;53.958;10.970;2023-05-01T13:14:36;100772.53;;;17.44;39.09
39823;BME280;25499;53.958;10.970;2023-05-01T13:17:05;100789.13;;;17.46;39.99
39823;BME280;25499;53.958;10.970;2023-05-01T13:19:32;100803.06;;;18.06;39.61
39823;BME280;25499;53.958;10.970;2023-05-01T13:21:59;100776.38;;;17.91;38.60
39823;BME280;25499;53.958;10.970;2023-05-01T13:24:35;100873.28;;;18.07;41.10
39823;BME280;25499;53.958;10.970;2023-05-01T13:27:02;100856.06;;;17.67;40.58
39823;BME280;25499;53.958;10.970;2023-05-01T13:29:30;100805.75;;;17.48;39.76
39823;BME280;25499;53.958;10.970;2023-05-01T13:31:59;100914.16;;;17.93;42.62
39823;BME280;25499;53.958;10.970;2023-05-01T13:34:28;100783.81;;;17.76;39.11
39823;BME280;25499;53.958;10.970;2023-05-01T13:36:56;100799.22;;;17.62;39.40
39823;BME280;25499;53.958;10.970;2023-05-01T13:39:23;100870.72;;;17.76;41.54
39823;BME280;25499;53.958;10.970;2023-05-01T13:41:51;100833.06;;;17.44;42.36
39823;BME280;25499;53.958;10.970;2023-05-01T13:44:18;100775.97;;;17.46;39.87
39823;BME280;25499;53.958;10.970;2023-05-01T13:46:46;100742.69;;;17.45;38.66
39823;BME280;25499;53.958;10.970;2023-05-01T13:49:16;100805.47;;;17.58;40.79
39823;BME280;25499;53.958;10.970;2023-05-01T13:51:46;100760.31;;;17.70;39.37
39823;BME280;25499;53.958;10.970;2023-05-01T13:54:13;100794.34;;;17.48;40.49
39823;BME280;25499;53.958;10.970;2023-05-01T13:56:41;100763.69;;;17.47;39.59
39823;BME280;25499;53.958;10.970;2023-05-01T13:59:07;100789.78;;;17.26;41.29
39823;BME280;25499;53.958;10.970;2023-05-01T14:01:39;100842.44;;;17.25;41.89
39823;BME280;25499;53.958;10.970;2023-05-01T14:04:08;100771.91;;;17.08;41.68
39823;BME280;25499;53.958;10.970;2023-05-01T14:06:40;100795.84;;;17.28;41.02
39823;BME280;25499;53.958;10.970;2023-05-01T14:09:11;100847.41;;;17.64;42.11
39823;BME280;25499;53.958;10.970;2023-05-01T14:11:43;100795.19;;;17.50;41.15
39823;BME280;25499;53.958;10.970;2023-05-01T14:14:11;100842.38;;;17.56;42.66
39823;BME280;25499;53.958;10.970;2023-05-01T14:16:39;100820.84;;;17.43;41.90
39823;BME280;25499;53.958;10.970;2023-05-01T14:19:07;100823.28;;;17.20;42.32
39823;BME280;25499;53.958;10.970;2023-05-01T14:21:39;100829.63;;;17.42;42.47
39823;BME280;25499;53.958;10.970;2023-05-01T14:24:07;100856.16;;;17.64;42.86
39823;BME280;25499;53.958;10.970;2023-05-01T14:26:35;100794.50;;;17.43;42.22
39823;BME280;25499;53.958;10.970;2023-05-01T14:29:04;100788.09;;;17.52;41.35
39823;BME280;25499;53.958;10.970;2023-05-01T14:31:32;100820.81;;;17.71;41.66
39823;BME280;25499;53.958;10.970;2023-05-01T14:34:00;100831.25;;;17.75;41.86
39823;BME280;25499;53.958;10.970;2023-05-01T14:36:28;100828.88;;;17.67;41.96
39823;BME280;25499;53.958;10.970;2023-05-01T14:39:00;100754.69;;;17.54;40.64
39823;BME280;25499;53.958;10.970;2023-05-01T14:41:27;100750.53;;;17.47;41.35
39823;BME280;25499;53.958;10.970;2023-05-01T14:43:54;100812.56;;;17.56;42.17
39823;BME280;25499;53.958;10.970;2023-05-01T14:46:32;100841.31;;;17.33;43.75
39823;BME280;25499;53.958;10.970;2023-05-01T14:48:59;100805.56;;;17.26;42.01
39823;BME280;25499;53.958;10.970;2023-05-01T14:51:27;100829.25;;;17.26;42.60
39823;BME280;25499;53.958;10.970;2023-05-01T14:53:57;100876.44;;;17.31;44.36
39823;BME280;25499;53.958;10.970;2023-05-01T14:56:24;100799.06;;;17.38;42.87
39823;BME280;25499;53.958;10.970;2023-05-01T14:58:51;100778.41;;;17.52;41.70
39823;BME280;25499;53.958;10.970;2023-05-01T15:01:18;100762.13;;;17.68;41.17
39823;BME280;25499;53.958;10.970;2023-05-01T15:03:45;100748.09;;;17.41;40.41
39823;BME280;25499;53.958;10.970;2023-05-01T15:06:12;100767.78;;;17.56;41.49
39823;BME280;25499;53.958;10.970;2023-05-01T15:08:39;100834.81;;;17.74;42.82
39823;BME280;25499;53.958;10.970;2023-05-01T15:11:07;100726.84;;;17.74;40.01
39823;BME280;25499;53.958;10.970;2023-05-01T15:13:34;100760.09;;;17.76;40.04
39823;BME280;25499;53.958;10.970;2023-05-01T15:16:01;100791.66;;;17.78;41.63
39823;BME280;25499;53.958;10.970;2023-05-01T15:18:28;100779.47;;;18.02;41.53
39823;BME280;25499;53.958;10.970;2023-05-01T15:20:55;100724.06;;;18.05;39.91
39823;BME280;25499;53.958;10.970;2023-05-01T15:23:22;100713.63;;;18.02;39.22
39823;BME280;25499;53.958;10.970;2023-05-01T15:25:51;100666.72;;;17.86;38.25
39823;BME280;25499;53.958;10.970;2023-05-01T15:28:21;100726.34;;;18.14;39.59
39823;BME280;25499;53.958;10.970;2023-05-01T15:30:49;100872.78;;;18.23;44.29
39823;BME280;25499;53.958;10.970;2023-05-01T15:33:17;100917.09;;;18.10;46.85
39823;BME280;25499;53.958;10.970;2023-05-01T15:35:44;100911.22;;;18.02;46.70
39823;BME280;25499;53.958;10.970;2023-05-01T15:38:11;100946.31;;;18.02;48.64
39823;BME280;25499;53.958;10.970;2023-05-01T15:40:38;100947.34;;;17.98;48.73
39823;BME280;25499;53.958;10.970;2023-05-01T15:43:05;100971.56;;;17.80;50.27
39823;BME280;25499;53.958;10.970;2023-05-01T15:45:33;100995.69;;;17.66;51.70
39823;BME280;25499;53.958;10.970;2023-05-01T15:48:00;101013.47;;;17.58;53.51
39823;BME280;25499;53.958;10.970;2023-05-01T15:50:27;101015.44;;;17.49;54.26
39823;BME280;25499;53.958;10.970;2023-05-01T15:52:54;101031.41;;;17.43;55.30
39823;BME280;25499;53.958;10.970;2023-05-01T15:55:21;100981.72;;;17.31;53.80
39823;BME280;25499;53.958;10.970;2023-05-01T15:57:47;100963.91;;;17.09;52.71
39823;BME280;25499;53.958;10.970;2023-05-01T16:00:15;100966.72;;;17.02;53.00
39823;BME280;25499;53.958;10.970;2023-05-01T16:02:44;100983.88;;;17.17;53.30
39823;BME280;25499;53.958;10.970;2023-05-01T16:05:12;100997.38;;;17.04;54.12
39823;BME280;25499;53.958;10.970;2023-05-01T16:07:42;100999.97;;;17.06;54.44
39823;BME280;25499;53.958;10.970;2023-05-01T16:10:11;100992.84;;;17.09;53.99
39823;BME280;25499;53.958;10.970;2023-05-01T16:12:37;100925.09;;;17.18;51.72
39823;BME280;25499;53.958;10.970;2023-05-01T16:15:05;100933.88;;;17.17;51.75
39823;BME280;25499;53.958;10.970;2023-05-01T16:17:38;100925.09;;;17.18;50.57
39823;BME280;25499;53.958;10.970;2023-05-01T16:20:10;100975.72;;;17.26;52.61
39823;BME280;25499;53.958;10.970;2023-05-01T16:22:38;100976.88;;;17.15;53.52
39823;BME280;25499;53.958;10.970;2023-05-01T16:25:05;100921.50;;;17.20;51.28
39823;BME280;25499;53.958;10.970;2023-05-01T16:27:33;100945.97;;;17.24;51.75
39823;BME280;25499;53.958;10.970;2023-05-01T16:30:03;100940.78;;;17.21;51.87
39823;BME280;25499;53.958;10.970;2023-05-01T16:32:30;100932.03;;;17.20;51.17
39823;BME280;25499;53.958;10.970;2023-05-01T16:34:57;100930.53;;;17.11;51.39
39823;BME280;25499;53.958;10.970;2023-05-01T16:37:25;100921.63;;;17.15;51.11
39823;BME280;25499;53.958;10.970;2023-05-01T16:39:52;100869.16;;;17.11;48.56
39823;BME280;25499;53.958;10.970;2023-05-01T16:42:19;100919.09;;;17.12;50.40
39823;BME280;25499;53.958;10.970;2023-05-01T16:44:45;100930.38;;;17.18;51.06
39823;BME280;25499;53.958;10.970;2023-05-01T16:47:12;100977.72;;;17.18;52.62
39823;BME280;25499;53.958;10.970;2023-05-01T16:49:40;100900.94;;;17.03;50.66
39823;BME280;25499;53.958;10.970;2023-05-01T16:52:07;100842.19;;;17.03;47.16
39823;BME280;25499;53.958;10.970;2023-05-01T16:54:39;100908.97;;;16.97;48.93
39823;BME280;25499;53.958;10.970;2023-05-01T16:57:06;100944.56;;;16.76;51.18
39823;BME280;25499;53.958;10.970;2023-05-01T16:59:32;100991.22;;;16.68;53.91
39823;BME280;25499;53.958;10.970;2023-05-01T17:01:59;100989.78;;;16.54;54.06
39823;BME280;25499;53.958;10.970;2023-05-01T17:04:26;100949.81;;;16.41;53.20
39823;BME280;25499;53.958;10.970;2023-05-01T17:06:53;100892.97;;;16.37;51.41
39823;BME280;25499;53.958;10.970;2023-05-01T17:09:21;100894.91;;;16.29;49.80
39823;BME280;25499;53.958;10.970;2023-05-01T17:11:49;100918.00;;;16.16;51.16
39823;BME280;25499;53.958;10.970;2023-05-01T17:14:16;100972.31;;;16.16;53.82
39823;BME280;25499;53.958;10.970;2023-05-01T17:16:43;101011.78;;;16.13;55.45
39823;BME280;25499;53.958;10.970;2023-05-01T17:19:10;101034.59;;;16.11;57.24
39823;BME280;25499;53.958;10.970;2023-05-01T17:21:38;100944.56;;;16.04;53.68
39823;BME280;25499;53.958;10.970;2023-05-01T17:24:04;100960.41;;;15.99;53.52
39823;BME280;25499;53.958;10.970;2023-05-01T17:26:31;101015.50;;;16.02;55.65
39823;BME280;25499;53.958;10.970;2023-05-01T17:29:00;101066.53;;;15.91;59.48
39823;BME280;25499;53.958;10.970;2023-05-01T17:31:27;101038.56;;;15.88;58.97
39823;BME280;25499;53.958;10.970;2023-05-01T17:33:54;101056.09;;;15.88;59.81
39823;BME280;25499;53.958;10.970;2023-05-01T17:36:20;101069.34;;;15.80;62.22
39823;BME280;25499;53.958;10.970;2023-05-01T17:38:48;101058.00;;;15.78;61.11
39823;BME280;25499;53.958;10.970;2023-05-01T17:41:15;101070.34;;;15.73;62.82
39823;BME280;25499;53.958;10.970;2023-05-01T17:43:41;101071.47;;;15.59;63.28
39823;BME280;25499;53.958;10.970;2023-05-01T17:46:10;101071.50;;;15.56;64.21
39823;BME280;25499;53.958;10.970;2023-05-01T17:48:39;101054.94;;;15.54;63.45
39823;BME280;25499;53.958;10.970;2023-05-01T17:51:06;101058.47;;;15.53;64.08
39823;BME280;25499;53.958;10.970;2023-05-01T17:53:33;101057.66;;;15.50;63.51
39823;BME280;25499;53.958;10.970;2023-05-01T17:56:00;101070.03;;;15.43;64.75
39823;BME280;25499;53.958;10.970;2023-05-01T17:58:27;101035.16;;;15.38;62.48
39823;BME280;25499;53.958;10.970;2023-05-01T18:00:54;101007.13;;;15.40;61.15
39823;BME280;25499;53.958;10.970;2023-05-01T18:03:22;101035.28;;;15.28;62.21
39823;BME280;25499;53.958;10.970;2023-05-01T18:05:48;101058.94;;;15.25;64.23
39823;BME280;25499;53.958;10.970;2023-05-01T18:08:15;101067.88;;;15.15;64.80
39823;BME280;25499;53.958;10.970;2023-05-01T18:10:42;101087.34;;;15.00;66.68
39823;BME280;25499;53.958;10.970;2023-05-01T18:13:09;101087.59;;;14.85;67.06
39823;BME280;25499;53.958;10.970;2023-05-01T18:15:36;101083.28;;;14.81;66.90
39823;BME280;25499;53.958;10.970;2023-05-01T18:18:02;101085.22;;;14.68;67.04
39823;BME280;25499;53.958;10.970;2023-05-01T18:20:30;101066.09;;;14.63;66.86
39823;BME280;25499;53.958;10.970;2023-05-01T18:22:58;101064.44;;;14.54;65.74
39823;BME280;25499;53.958;10.970;2023-05-01T18:25:25;101097.84;;;14.38;68.08
39823;BME280;25499;53.958;10.970;2023-05-01T18:27:52;101104.16;;;14.22;69.82
39823;BME280;25499;53.958;10.970;2023-05-01T18:30:20;101111.34;;;14.07;70.15
39823;BME280;25499;53.958;10.970;2023-05-01T18:32:48;101089.69;;;13.91;69.62
39823;BME280;25499;53.958;10.970;2023-05-01T18:35:14;101083.78;;;13.72;69.15
39823;BME280;25499;53.958;10.970;2023-05-01T18:37:44;101088.31;;;13.59;69.45
39823;BME280;25499;53.958;10.970;2023-05-01T18:40:11;101064.81;;;13.55;67.88
39823;BME280;25499;53.958;10.970;2023-05-01T18:42:39;101062.34;;;13.39;67.38
39823;BME280;25499;53.958;10.970;2023-05-01T18:45:07;101030.03;;;13.45;65.07
39823;BME280;25499;53.958;10.970;2023-05-01T18:47:35;101034.31;;;13.51;64.27
39823;BME280;25499;53.958;10.970;2023-05-01T18:50:02;101064.94;;;13.41;65.23
39823;BME280;25499;53.958;10.970;2023-05-01T18:52:28;101051.06;;;13.34;64.66
39823;BME280;25499;53.958;10.970;2023-05-01T18:54:56;101007.34;;;13.46;62.00
39823;BME280;25499;53.958;10.970;2023-05-01T18:57:23;101017.88;;;13.39;61.86
39823;BME280;25499;53.958;10.970;2023-05-01T18:59:52;101026.59;;;13.40;62.07
39823;BME280;25499;53.958;10.970;2023-05-01T19:02:18;101023.97;;;13.40;61.71
39823;BME280;25499;53.958;10.970;2023-05-01T19:04:45;101045.84;;;13.34;62.65
39823;BME280;25499;53.958;10.970;2023-05-01T19:07:12;101061.56;;;13.25;63.78
39823;BME280;25499;53.958;10.970;2023-05-01T19:09:38;101077.50;;;12.97;65.18
39823;BME280;25499;53.958;10.970;2023-05-01T19:12:06;101103.66;;;12.93;66.55
39823;BME280;25499;53.958;10.970;2023-05-01T19:14:33;101103.66;;;12.93;67.12
39823;BME280;25499;53.958;10.970;2023-05-01T19:17:00;101108.03;;;12.91;67.33
39823;BME280;25499;53.958;10.970;2023-05-01T19:19:27;101110.75;;;12.77;68.08
39823;BME280;25499;53.958;10.970;2023-05-01T19:21:53;101131.72;;;12.64;68.72
39823;BME280;25499;53.958;10.970;2023-05-01T19:24:20;101130.06;;;12.45;69.16
39823;BME280;25499;53.958;10.970;2023-05-01T19:26:47;101143.19;;;12.28;69.96
39823;BME280;25499;53.958;10.970;2023-05-01T19:29:15;101148.47;;;12.14;70.53
39823;BME280;25499;53.958;10.970;2023-05-01T19:31:42;101145.00;;;12.12;71.05
39823;BME280;25499;53.958;10.970;2023-05-01T19:34:08;101145.88;;;12.12;71.31
39823;BME280;25499;53.958;10.970;2023-05-01T19:36:35;101145.00;;;12.03;72.04
39823;BME280;25499;53.958;10.970;2023-05-01T19:39:02;101148.53;;;11.91;72.58
39823;BME280;25499;53.958;10.970;2023-05-01T19:41:30;101150.28;;;11.80;72.58
39823;BME280;25499;53.958;10.970;2023-05-01T19:43:57;101160.69;;;11.69;73.89